Terminal Aerodrome Forecast
Issued by NWS Pocatello, ID

Home | Current Version | Previous Version | Text Only | Print | Product List | Glossary On
Versions: 1 2 3 4 5 6 7 8 9 10 11 12 13 14 15 16 17 18 19 20 21
802
FTUS45 KPIH 271120
TAFIDA
TAF
KIDA 271120Z 2712/2812 22006KT P6SM BKN004 OVC020
     FM271700 22008KT P6SM VCSH SCT008 OVC015
      TEMPO 2718/2722 2SM -SN OVC008
     FM272200 23015G25KT P6SM SCT020 BKN060
     FM280200 21013KT P6SM OVC015=

USA.gov is the U.S. government's official web portal to all federal, state and local government web resources and services.